createdAt,value
2022-10-31T00:00:52.977Z,69.20
2022-10-31T00:03:19.946Z,69.20
2022-10-31T00:05:52.434Z,68.90
2022-10-31T00:08:19.446Z,68.90
2022-10-31T00:10:46.640Z,69.10
2022-10-31T00:13:14.280Z,69.10
2022-10-31T00:15:41.495Z,69.00
2022-10-31T00:18:08.739Z,69.10
2022-10-31T00:20:36.331Z,69.30
2022-10-31T00:23:03.560Z,69.10
2022-10-31T00:25:30.581Z,69.30
2022-10-31T00:27:57.767Z,69.20
2022-10-31T00:30:25.041Z,68.90
2022-10-31T00:32:52.013Z,69.10
2022-10-31T00:35:19.109Z,69.20
2022-10-31T00:37:46.170Z,69.10
2022-10-31T00:40:13.145Z,68.90
2022-10-31T00:42:42.523Z,68.80
2022-10-31T00:45:10.910Z,69.00
2022-10-31T00:47:38.007Z,69.10
2022-10-31T00:50:08.781Z,69.10
2022-10-31T00:52:35.799Z,69.10
2022-10-31T00:55:03.313Z,69.10
2022-10-31T00:57:30.394Z,69.00
2022-10-31T00:59:57.360Z,69.20
2022-10-31T01:02:24.623Z,69.20
2022-10-31T01:05:11.038Z,69.40
2022-10-31T01:07:41.720Z,69.20
2022-10-31T01:10:10.393Z,69.20
2022-10-31T01:12:45.258Z,69.40
2022-10-31T01:15:13.074Z,69.60
2022-10-31T01:17:40.274Z,69.40
2022-10-31T01:20:08.257Z,69.60
2022-10-31T01:22:35.422Z,69.70
2022-10-31T01:25:02.383Z,69.50
2022-10-31T01:27:30.238Z,69.70
2022-10-31T01:29:57.205Z,69.80
2022-10-31T01:32:24.248Z,69.80
2022-10-31T01:34:51.664Z,69.80
2022-10-31T01:37:19.687Z,69.70
2022-10-31T01:39:46.747Z,69.50
2022-10-31T01:42:20.362Z,69.50
2022-10-31T01:44:54.058Z,69.40
2022-10-31T01:47:27.300Z,69.60
2022-10-31T01:49:58.741Z,69.60
2022-10-31T01:52:57.038Z,69.60
2022-10-31T01:55:32.929Z,69.80
2022-10-31T01:58:08.064Z,69.70
2022-10-31T02:00:35.153Z,70.00
2022-10-31T02:03:03.118Z,69.90
2022-10-31T02:05:30.846Z,69.90
2022-10-31T02:08:09.540Z,70.00
2022-10-31T02:10:37.617Z,69.90
2022-10-31T02:13:06.448Z,70.00
2022-10-31T02:15:36.755Z,70.20
2022-10-31T02:18:04.464Z,70.20
2022-10-31T02:20:34.786Z,69.90
2022-10-31T02:23:23.094Z,70.10
2022-10-31T02:26:07.446Z,70.10
2022-10-31T02:28:46.976Z,70.00
2022-10-31T02:32:01.798Z,70.20
2022-10-31T02:34:35.034Z,70.00
2022-10-31T02:38:00.864Z,70.00
2022-10-31T02:40:36.936Z,69.80
2022-10-31T02:43:31.069Z,70.20
2022-10-31T02:46:12.318Z,70.20
2022-10-31T02:48:40.338Z,70.00
2022-10-31T02:51:08.186Z,69.90
2022-10-31T02:53:37.134Z,69.80
2022-10-31T02:56:08.348Z,70.00
2022-10-31T02:58:39.105Z,70.10
2022-10-31T03:01:34.170Z,69.90
2022-10-31T03:04:13.289Z,69.70
2022-10-31T03:07:14.185Z,69.90
2022-10-31T03:10:28.783Z,69.80
2022-10-31T03:13:05.810Z,69.60
2022-10-31T03:15:38.710Z,70.10
2022-10-31T03:18:07.684Z,70.10
2022-10-31T03:20:55.729Z,70.00
2022-10-31T03:23:23.287Z,69.80
2022-10-31T03:25:52.101Z,70.00
2022-10-31T03:28:20.247Z,70.10
2022-10-31T03:30:47.234Z,70.10
2022-10-31T03:33:17.687Z,69.90
2022-10-31T03:35:47.745Z,69.90
2022-10-31T03:38:15.050Z,69.80
2022-10-31T03:40:42.116Z,69.90
2022-10-31T03:43:11.714Z,69.70
2022-10-31T03:45:44.427Z,69.70
2022-10-31T03:48:12.937Z,69.70
2022-10-31T03:50:45.526Z,69.80
2022-10-31T03:53:25.522Z,70.00
2022-10-31T03:55:56.854Z,69.90
2022-10-31T03:58:26.975Z,69.90
2022-10-31T04:00:54.522Z,69.80
2022-10-31T04:03:28.689Z,70.10
2022-10-31T04:05:59.421Z,70.30
2022-10-31T04:08:28.730Z,70.20
2022-10-31T04:10:56.832Z,70.20
2022-10-31T04:13:39.028Z,70.00
2022-10-31T04:16:17.088Z,70.20
2022-10-31T04:18:45.085Z,70.10
2022-10-31T04:21:12.009Z,69.90
2022-10-31T04:23:39.215Z,70.00
2022-10-31T04:26:16.415Z,69.70
2022-10-31T04:28:44.653Z,69.70
2022-10-31T04:31:15.381Z,69.70
2022-10-31T04:33:44.654Z,69.70
2022-10-31T04:36:12.543Z,69.80
2022-10-31T04:38:39.507Z,69.90
2022-10-31T04:41:15.629Z,69.90
2022-10-31T04:43:51.235Z,69.90
2022-10-31T04:46:19.553Z,70.10
2022-10-31T04:48:46.513Z,70.20
2022-10-31T04:51:13.561Z,70.30
2022-10-31T04:53:40.821Z,70.10
2022-10-31T04:56:40.014Z,70.30
2022-10-31T04:59:14.567Z,70.30
2022-10-31T05:01:48.769Z,70.40
2022-10-31T05:04:19.164Z,70.20
2022-10-31T05:06:47.039Z,70.50
2022-10-31T05:09:14.593Z,70.50
2022-10-31T05:11:41.620Z,70.00
2022-10-31T05:14:21.830Z,69.80
2022-10-31T05:17:11.677Z,69.80
2022-10-31T05:19:58.602Z,69.80
2022-10-31T05:22:45.456Z,69.80
2022-10-31T05:25:12.718Z,70.10
2022-10-31T05:27:44.436Z,69.90
2022-10-31T05:30:12.490Z,69.80
2022-10-31T05:32:40.518Z,70.10
2022-10-31T05:35:29.614Z,69.90
2022-10-31T05:38:13.688Z,69.80
2022-10-31T05:40:41.066Z,70.40
2022-10-31T05:43:08.979Z,70.10
2022-10-31T05:45:35.977Z,70.10
2022-10-31T05:48:07.484Z,70.20
2022-10-31T05:51:03.508Z,69.70
2022-10-31T05:53:30.403Z,70.00
2022-10-31T05:55:57.346Z,70.00
2022-10-31T05:58:24.392Z,69.80
2022-10-31T06:01:00.667Z,69.40
2022-10-31T06:03:27.707Z,69.40
2022-10-31T06:05:58.378Z,69.20
2022-10-31T06:08:30.593Z,69.10
2022-10-31T06:11:01.298Z,69.10
2022-10-31T06:13:46.802Z,68.90
2022-10-31T06:16:19.965Z,69.20
2022-10-31T06:18:48.996Z,69.10
2022-10-31T06:21:18.875Z,69.10
2022-10-31T06:23:48.101Z,69.20
2022-10-31T06:26:41.294Z,68.80
2022-10-31T06:29:08.460Z,69.20
2022-10-31T06:31:55.837Z,68.60
2022-10-31T06:34:22.826Z,68.70
2022-10-31T06:36:50.020Z,68.70
2022-10-31T06:39:19.773Z,68.60
2022-10-31T06:41:48.999Z,68.40
2022-10-31T06:44:17.495Z,67.80
2022-10-31T06:46:59.640Z,67.50
2022-10-31T06:49:55.594Z,67.30
2022-10-31T06:52:24.515Z,67.10
2022-10-31T06:54:52.060Z,66.80
2022-10-31T06:57:19.468Z,66.80
2022-10-31T06:59:46.522Z,66.70
2022-10-31T07:02:25.488Z,66.50
2022-10-31T07:04:52.858Z,66.50
2022-10-31T07:07:22.198Z,66.20
2022-10-31T07:09:49.884Z,66.20
2022-10-31T07:12:20.333Z,66.00
2022-10-31T07:14:55.765Z,65.80
2022-10-31T07:17:29.690Z,65.40
2022-10-31T07:19:59.676Z,65.10
2022-10-31T07:22:32.753Z,65.20
2022-10-31T07:24:59.717Z,65.30
2022-10-31T07:27:45.533Z,64.70
2022-10-31T07:30:13.958Z,64.50
2022-10-31T07:32:41.285Z,64.40
2022-10-31T07:35:12.924Z,64.10
2022-10-31T07:37:47.347Z,64.20
2022-10-31T07:40:15.513Z,63.80
2022-10-31T07:42:44.622Z,64.70
2022-10-31T07:45:30.675Z,64.40
2022-10-31T07:48:17.614Z,63.60
2022-10-31T07:51:10.663Z,63.90
2022-10-31T07:53:57.500Z,63.50
2022-10-31T07:56:28.581Z,63.50
2022-10-31T07:58:55.775Z,63.30
2022-10-31T08:01:22.725Z,62.80
2022-10-31T08:04:09.027Z,62.60
2022-10-31T08:07:11.108Z,61.90
2022-10-31T08:09:40.337Z,61.80
2022-10-31T08:12:18.885Z,61.60
2022-10-31T08:14:46.118Z,61.40
2022-10-31T08:17:15.648Z,61.20
2022-10-31T08:19:59.923Z,61.20
2022-10-31T08:22:34.165Z,61.00
2022-10-31T08:25:02.277Z,60.50
2022-10-31T08:27:30.070Z,60.20
2022-10-31T08:29:59.968Z,60.20
2022-10-31T08:32:26.964Z,60.10
2022-10-31T08:34:53.891Z,59.70
2022-10-31T08:37:39.404Z,59.50
2022-10-31T08:40:07.744Z,59.40
2022-10-31T08:42:38.354Z,59.10
2022-10-31T08:45:05.701Z,59.00
2022-10-31T08:47:33.551Z,58.90
2022-10-31T08:50:00.838Z,58.90
2022-10-31T08:52:51.120Z,58.60
2022-10-31T08:55:15.260Z,58.50
2022-10-31T08:58:02.951Z,58.40
2022-10-31T09:00:39.900Z,58.40
2022-10-31T09:03:33.885Z,58.00
2022-10-31T09:06:03.753Z,58.10
2022-10-31T09:08:31.441Z,57.90
2022-10-31T09:10:58.617Z,57.90
2022-10-31T09:13:45.468Z,57.80
2022-10-31T09:16:38.330Z,57.90
2022-10-31T09:19:11.429Z,57.70
2022-10-31T09:21:38.734Z,57.70
2022-10-31T09:24:06.182Z,57.40
2022-10-31T09:26:34.607Z,57.30
2022-10-31T09:29:10.485Z,57.20
2022-10-31T09:31:43.701Z,57.20
2022-10-31T09:34:26.318Z,57.10
2022-10-31T09:37:19.534Z,57.00
2022-10-31T09:39:46.477Z,56.80
2022-10-31T09:42:49.828Z,56.30
2022-10-31T09:45:32.731Z,56.20
2022-10-31T09:48:22.230Z,55.80
2022-10-31T09:51:06.531Z,55.80
2022-10-31T09:53:57.604Z,55.50
2022-10-31T09:56:25.629Z,55.70
2022-10-31T09:58:59.240Z,55.40
2022-10-31T10:01:43.253Z,55.30
2022-10-31T10:04:10.862Z,54.90
2022-10-31T10:07:07.392Z,56.50
2022-10-31T10:10:28.994Z,55.60
2022-10-31T10:13:26.525Z,55.70
2022-10-31T10:16:15.158Z,55.60
2022-10-31T10:18:57.464Z,55.50
2022-10-31T10:21:24.773Z,55.70
2022-10-31T10:24:12.779Z,55.60
2022-10-31T10:26:43.824Z,55.40
2022-10-31T10:29:23.524Z,55.20
2022-10-31T10:31:50.940Z,54.90
2022-10-31T10:34:24.087Z,55.00
2022-10-31T10:37:17.725Z,54.90
2022-10-31T10:39:46.525Z,54.90
2022-10-31T10:42:32.814Z,55.00
2022-10-31T10:45:18.146Z,54.90
2022-10-31T10:47:48.187Z,54.70
2022-10-31T10:50:23.578Z,54.40
2022-10-31T10:53:02.594Z,54.40
2022-10-31T10:55:43.267Z,54.20
2022-10-31T10:58:10.788Z,54.40
2022-10-31T11:00:47.537Z,54.40
2022-10-31T11:03:15.328Z,54.10
2022-10-31T11:05:52.717Z,54.30
2022-10-31T11:08:36.210Z,54.20
2022-10-31T11:11:04.927Z,54.30
2022-10-31T11:13:32.591Z,54.30
2022-10-31T11:16:08.118Z,54.10
2022-10-31T11:18:40.383Z,54.00
2022-10-31T11:21:10.239Z,54.00
2022-10-31T11:23:37.190Z,53.80
2022-10-31T11:26:05.944Z,53.70
2022-10-31T11:28:35.741Z,53.50
2022-10-31T11:31:14.066Z,53.50
2022-10-31T11:33:47.528Z,53.30
2022-10-31T11:36:24.261Z,52.90
2022-10-31T11:38:51.645Z,52.90
2022-10-31T11:41:26.751Z,52.90
2022-10-31T11:43:56.854Z,52.60
2022-10-31T11:46:37.073Z,52.40
2022-10-31T11:49:04.136Z,52.30
2022-10-31T11:51:33.967Z,52.70
2022-10-31T11:54:03.586Z,52.60
2022-10-31T11:56:40.916Z,53.00
2022-10-31T11:59:22.065Z,53.10
2022-10-31T12:01:50.830Z,52.80
2022-10-31T12:04:20.689Z,52.70
2022-10-31T12:06:47.977Z,52.70
2022-10-31T12:09:34.102Z,52.90
2022-10-31T12:12:07.267Z,53.20
2022-10-31T12:14:34.251Z,53.10
2022-10-31T12:17:19.117Z,53.30
2022-10-31T12:20:20.131Z,53.30
2022-10-31T12:23:03.086Z,53.50
2022-10-31T12:26:02.600Z,53.60
2022-10-31T12:29:06.448Z,53.70
2022-10-31T12:31:43.083Z,53.90
2022-10-31T12:34:34.734Z,54.00
2022-10-31T12:37:21.243Z,54.00
2022-10-31T12:40:16.230Z,54.00
2022-10-31T12:43:07.839Z,54.10
2022-10-31T12:45:54.431Z,54.00
2022-10-31T12:49:12.772Z,54.00
2022-10-31T12:51:42.016Z,54.00
2022-10-31T12:54:28.140Z,54.10
2022-10-31T12:57:01.733Z,53.90
2022-10-31T12:59:46.861Z,53.80
2022-10-31T13:02:23.581Z,53.80
2022-10-31T13:04:57.701Z,53.90
2022-10-31T13:07:26.573Z,53.80
2022-10-31T13:10:04.831Z,54.60
2022-10-31T13:12:34.801Z,54.10
2022-10-31T13:15:14.826Z,54.00
2022-10-31T13:17:45.037Z,53.80
2022-10-31T13:20:24.073Z,53.70
2022-10-31T13:22:57.873Z,53.60
2022-10-31T13:25:32.780Z,53.70
2022-10-31T13:28:06.068Z,54.50
2022-10-31T13:30:34.509Z,53.90
2022-10-31T13:33:16.975Z,53.80
2022-10-31T13:36:14.816Z,53.70
2022-10-31T13:39:12.119Z,53.50
2022-10-31T13:42:02.728Z,53.60
2022-10-31T13:44:35.899Z,53.80
2022-10-31T13:47:05.320Z,53.90
2022-10-31T13:49:32.314Z,53.90
2022-10-31T13:52:15.727Z,54.00
2022-10-31T13:54:52.668Z,54.00
2022-10-31T13:57:20.442Z,54.00
2022-10-31T13:59:55.835Z,54.00
2022-10-31T14:02:46.995Z,53.90
2022-10-31T14:05:34.167Z,53.90
2022-10-31T14:08:05.059Z,54.00
2022-10-31T14:10:33.885Z,54.00
2022-10-31T14:13:29.300Z,54.00
2022-10-31T14:16:01.524Z,54.00
2022-10-31T14:18:38.938Z,54.20
2022-10-31T14:21:24.560Z,54.10
2022-10-31T14:23:54.218Z,54.20
2022-10-31T14:26:29.330Z,54.50
2022-10-31T14:29:16.981Z,54.60
2022-10-31T14:31:54.105Z,54.70
2022-10-31T14:34:38.178Z,54.90
2022-10-31T14:37:33.146Z,54.90
2022-10-31T14:40:06.000Z,55.10
2022-10-31T14:42:34.027Z,55.20
2022-10-31T14:45:04.090Z,55.40
2022-10-31T14:47:46.304Z,55.40
2022-10-31T14:50:45.330Z,55.50
2022-10-31T14:53:30.120Z,55.60
2022-10-31T14:55:59.468Z,55.80
2022-10-31T14:58:46.742Z,56.10
2022-10-31T15:01:23.608Z,56.10
2022-10-31T15:04:17.640Z,56.30
2022-10-31T15:06:43.490Z,56.50
2022-10-31T15:09:30.949Z,56.60
2022-10-31T15:12:00.409Z,56.60
2022-10-31T15:14:29.518Z,56.90
2022-10-31T15:17:00.350Z,57.00
2022-10-31T15:19:29.579Z,57.10
2022-10-31T15:21:57.741Z,57.30
2022-10-31T15:24:28.812Z,57.50
2022-10-31T15:26:56.939Z,57.70
2022-10-31T15:29:26.902Z,57.80
2022-10-31T15:32:23.912Z,57.90
2022-10-31T15:34:52.527Z,57.90
2022-10-31T15:37:21.292Z,58.50
2022-10-31T15:39:51.362Z,58.70
2022-10-31T15:42:44.746Z,58.90
2022-10-31T15:45:14.593Z,58.70
2022-10-31T15:47:47.119Z,59.20
2022-10-31T15:50:37.173Z,59.50
2022-10-31T15:53:05.639Z,59.40
2022-10-31T15:55:37.621Z,59.90
2022-10-31T15:58:11.418Z,60.00
2022-10-31T16:00:39.464Z,60.20
2022-10-31T16:03:15.496Z,60.40
2022-10-31T16:05:46.451Z,60.60
2022-10-31T16:08:26.618Z,60.90
2022-10-31T16:10:53.915Z,61.10
2022-10-31T16:13:23.826Z,61.20
2022-10-31T16:16:03.656Z,61.70
2022-10-31T16:18:41.716Z,61.70
2022-10-31T16:21:08.990Z,61.70
2022-10-31T16:23:35.901Z,62.10
2022-10-31T16:26:07.077Z,62.30
2022-10-31T16:28:36.964Z,62.50
2022-10-31T16:31:14.502Z,62.50
2022-10-31T16:33:41.580Z,62.60
2022-10-31T16:36:36.287Z,63.00
2022-10-31T16:39:04.289Z,62.70
2022-10-31T16:41:31.276Z,63.00
2022-10-31T16:43:58.286Z,63.30
2022-10-31T16:46:26.778Z,63.40
2022-10-31T16:48:54.128Z,63.80
2022-10-31T16:51:21.260Z,63.80
2022-10-31T16:53:48.239Z,63.90
2022-10-31T16:56:27.189Z,64.00
2022-10-31T16:58:54.172Z,64.20
2022-10-31T17:01:21.327Z,64.30
2022-10-31T17:03:48.498Z,64.40
2022-10-31T17:06:15.638Z,64.80
2022-10-31T17:08:42.606Z,64.80
2022-10-31T17:11:18.462Z,64.80
2022-10-31T17:13:45.714Z,64.80
2022-10-31T17:16:13.585Z,65.00
2022-10-31T17:18:40.666Z,65.30
2022-10-31T17:21:10.640Z,65.30
2022-10-31T17:23:38.612Z,65.40
2022-10-31T17:26:06.577Z,65.40
2022-10-31T17:28:33.536Z,65.60
2022-10-31T17:31:01.756Z,65.80
2022-10-31T17:33:28.872Z,66.00
2022-10-31T17:35:56.146Z,66.00
2022-10-31T17:38:23.184Z,66.00
2022-10-31T17:40:50.267Z,66.20
2022-10-31T17:43:21.261Z,66.30
2022-10-31T17:45:48.672Z,66.50
2022-10-31T17:48:15.599Z,66.50
2022-10-31T17:50:42.762Z,66.60
2022-10-31T17:53:09.750Z,66.70
2022-10-31T17:55:37.726Z,66.70
2022-10-31T17:58:05.066Z,66.80
2022-10-31T18:00:33.591Z,67.00
2022-10-31T18:03:03.348Z,67.00
2022-10-31T18:05:30.978Z,66.90
2022-10-31T18:08:02.556Z,66.90
2022-10-31T18:10:31.548Z,66.80
2022-10-31T18:12:58.960Z,66.90
2022-10-31T18:15:26.286Z,67.00
2022-10-31T18:17:53.222Z,67.00
2022-10-31T18:20:20.295Z,67.00
2022-10-31T18:22:47.284Z,67.10
2022-10-31T18:25:14.349Z,67.20
2022-10-31T18:27:41.469Z,67.30
2022-10-31T18:30:09.057Z,67.30
2022-10-31T18:32:36.473Z,67.30
2022-10-31T18:35:03.564Z,67.40
2022-10-31T18:37:30.525Z,67.40
2022-10-31T18:39:57.524Z,67.40
2022-10-31T18:42:24.673Z,67.40
2022-10-31T18:44:51.683Z,67.50
2022-10-31T18:47:19.412Z,67.50
2022-10-31T18:49:46.414Z,67.60
2022-10-31T18:52:13.370Z,67.70
2022-10-31T18:54:40.325Z,67.60
2022-10-31T18:57:07.517Z,67.60
2022-10-31T18:59:34.521Z,67.50
2022-10-31T19:02:01.607Z,67.50
2022-10-31T19:04:29.726Z,67.50
2022-10-31T19:06:56.758Z,67.50
2022-10-31T19:09:24.341Z,67.40
2022-10-31T19:11:51.436Z,67.50
2022-10-31T19:14:18.519Z,67.30
2022-10-31T19:16:45.476Z,67.40
2022-10-31T19:19:12.437Z,67.40
2022-10-31T19:21:39.402Z,67.50
2022-10-31T19:24:06.511Z,67.50
2022-10-31T19:26:35.058Z,67.50
2022-10-31T19:29:02.045Z,67.70
2022-10-31T19:31:29.072Z,67.60
2022-10-31T19:33:56.394Z,67.70
2022-10-31T19:36:23.899Z,67.70
2022-10-31T19:38:51.725Z,68.10
2022-10-31T19:41:26.432Z,67.90
2022-10-31T19:43:53.781Z,68.10
2022-10-31T19:46:40.386Z,67.90
2022-10-31T19:49:09.645Z,67.90
2022-10-31T19:51:37.345Z,67.90
2022-10-31T19:54:04.332Z,67.90
2022-10-31T19:56:31.340Z,68.00
2022-10-31T19:58:59.859Z,68.00
2022-10-31T20:01:26.912Z,68.10
2022-10-31T20:03:54.055Z,68.20
2022-10-31T20:06:53.642Z,68.20
2022-10-31T20:09:21.093Z,67.80
2022-10-31T20:11:48.037Z,68.20
2022-10-31T20:14:16.456Z,68.20
2022-10-31T20:16:44.010Z,68.20
2022-10-31T20:19:13.820Z,68.30
2022-10-31T20:21:42.842Z,68.40
2022-10-31T20:24:10.265Z,68.60
2022-10-31T20:26:41.378Z,68.50
2022-10-31T20:29:16.148Z,68.30
2022-10-31T20:31:43.361Z,68.20
2022-10-31T20:34:10.788Z,68.20
2022-10-31T20:36:40.422Z,68.20
2022-10-31T20:39:08.614Z,68.30
2022-10-31T20:41:39.366Z,68.30
2022-10-31T20:44:07.007Z,68.40
2022-10-31T20:46:34.063Z,68.50
2022-10-31T20:49:00.998Z,68.50
2022-10-31T20:51:31.846Z,68.50
2022-10-31T20:54:02.600Z,68.60
2022-10-31T20:56:30.653Z,68.80
2022-10-31T20:58:57.749Z,68.90
2022-10-31T21:01:27.116Z,68.90
2022-10-31T21:03:54.270Z,68.90
2022-10-31T21:06:21.476Z,68.90
2022-10-31T21:08:48.520Z,69.00
2022-10-31T21:11:17.587Z,69.00
2022-10-31T21:13:52.538Z,69.00
2022-10-31T21:16:24.609Z,68.90
2022-10-31T21:18:51.894Z,69.00
2022-10-31T21:21:32.368Z,68.90
2022-10-31T21:24:10.334Z,68.90
2022-10-31T21:26:39.150Z,68.90
2022-10-31T21:29:10.064Z,68.80
2022-10-31T21:31:37.696Z,68.80
2022-10-31T21:34:05.072Z,68.70
2022-10-31T21:36:32.206Z,68.80
2022-10-31T21:38:59.502Z,68.80
2022-10-31T21:41:26.703Z,68.70
2022-10-31T21:43:54.365Z,68.60
2022-10-31T21:46:22.990Z,68.60
2022-10-31T21:48:49.974Z,68.60
2022-10-31T21:51:21.720Z,68.70
2022-10-31T21:54:07.230Z,68.50
2022-10-31T21:56:34.759Z,68.50
2022-10-31T21:59:05.315Z,68.40
2022-10-31T22:01:32.598Z,68.50
2022-10-31T22:03:59.740Z,68.70
2022-10-31T22:06:27.335Z,68.50
2022-10-31T22:08:54.638Z,68.50
2022-10-31T22:11:21.701Z,68.40
2022-10-31T22:13:51.879Z,68.20
2022-10-31T22:16:32.443Z,68.10
2022-10-31T22:19:09.635Z,68.20
2022-10-31T22:21:39.166Z,68.50
2022-10-31T22:24:07.691Z,68.50
2022-10-31T22:26:35.159Z,68.70
2022-10-31T22:29:04.003Z,68.70
2022-10-31T22:31:31.649Z,68.80
2022-10-31T22:33:58.896Z,68.90
2022-10-31T22:36:27.624Z,68.90
2022-10-31T22:38:54.758Z,68.90
2022-10-31T22:41:23.562Z,69.10
2022-10-31T22:43:50.654Z,69.10
2022-10-31T22:46:19.342Z,69.20
2022-10-31T22:48:48.252Z,69.40
2022-10-31T22:51:25.484Z,69.30
2022-10-31T22:53:52.604Z,69.40
2022-10-31T22:56:20.929Z,69.60
2022-10-31T22:58:48.329Z,69.10
2022-10-31T23:01:19.018Z,69.30
2022-10-31T23:03:46.918Z,69.40
2022-10-31T23:06:17.761Z,69.40
2022-10-31T23:08:49.370Z,69.20
2022-10-31T23:11:19.211Z,69.10
2022-10-31T23:14:06.312Z,69.00
2022-10-31T23:16:37.029Z,69.10
2022-10-31T23:19:09.976Z,69.10
2022-10-31T23:22:04.913Z,69.40
2022-10-31T23:24:34.582Z,69.50
2022-10-31T23:27:19.147Z,69.10
2022-10-31T23:30:05.824Z,69.70
2022-10-31T23:32:42.878Z,69.70
2022-10-31T23:35:11.145Z,69.70
2022-10-31T23:37:44.338Z,69.80
2022-10-31T23:40:22.705Z,70.10
2022-10-31T23:42:49.777Z,70.30
2022-10-31T23:45:22.549Z,70.40
2022-10-31T23:47:52.074Z,70.70
2022-10-31T23:50:19.203Z,70.70
2022-10-31T23:52:50.091Z,70.90
2022-10-31T23:55:20.932Z,71.10
2022-10-31T23:57:51.814Z,71.10
